sensor_id;sensor_type;location;lat;lon;timestamp;temperature;humidity
39889;DHT22;25563;50.844;4.308;2022-07-23T00:00:23;19.50;98.80
39889;DHT22;25563;50.844;4.308;2022-07-23T00:02:49;19.20;98.90
39889;DHT22;25563;50.844;4.308;2022-07-23T00:05:15;19.20;99.00
39889;DHT22;25563;50.844;4.308;2022-07-23T00:07:41;19.20;99.20
39889;DHT22;25563;50.844;4.308;2022-07-23T00:10:07;19.10;99.30
39889;DHT22;25563;50.844;4.308;2022-07-23T00:12:33;19.10;99.60
39889;DHT22;25563;50.844;4.308;2022-07-23T00:15:01;19.10;99.50
39889;DHT22;25563;50.844;4.308;2022-07-23T00:17:27;19.10;99.50
39889;DHT22;25563;50.844;4.308;2022-07-23T00:20:01;19.10;99.60
39889;DHT22;25563;50.844;4.308;2022-07-23T00:22:27;19.10;99.60
39889;DHT22;25563;50.844;4.308;2022-07-23T00:24:55;19.10;99.70
39889;DHT22;25563;50.844;4.308;2022-07-23T00:27:24;19.10;99.70
39889;DHT22;25563;50.844;4.308;2022-07-23T00:29:50;19.00;99.80
39889;DHT22;25563;50.844;4.308;2022-07-23T00:32:18;19.00;99.80
39889;DHT22;25563;50.844;4.308;2022-07-23T00:34:44;19.00;99.90
39889;DHT22;25563;50.844;4.308;2022-07-23T00:37:10;19.10;99.90
39889;DHT22;25563;50.844;4.308;2022-07-23T00:39:36;19.00;99.90
39889;DHT22;25563;50.844;4.308;2022-07-23T00:42:03;19.00;99.90
39889;DHT22;25563;50.844;4.308;2022-07-23T00:44:30;19.00;99.90
39889;DHT22;25563;50.844;4.308;2022-07-23T00:46:59;19.00;99.90
39889;DHT22;25563;50.844;4.308;2022-07-23T00:49:28;19.00;99.90
39889;DHT22;25563;50.844;4.308;2022-07-23T00:51:54;19.00;99.90
39889;DHT22;25563;50.844;4.308;2022-07-23T00:54:23;19.00;99.90
39889;DHT22;25563;50.844;4.308;2022-07-23T00:56:50;18.90;99.90
39889;DHT22;25563;50.844;4.308;2022-07-23T00:59:16;18.90;99.90
39889;DHT22;25563;50.844;4.308;2022-07-23T01:01:42;18.80;99.90
39889;DHT22;25563;50.844;4.308;2022-07-23T01:04:12;18.80;99.90
39889;DHT22;25563;50.844;4.308;2022-07-23T01:06:38;18.90;99.90
39889;DHT22;25563;50.844;4.308;2022-07-23T01:09:06;18.80;99.90
39889;DHT22;25563;50.844;4.308;2022-07-23T01:11:37;18.80;99.90
39889;DHT22;25563;50.844;4.308;2022-07-23T01:14:14;18.70;99.90
39889;DHT22;25563;50.844;4.308;2022-07-23T01:16:41;18.70;99.90
39889;DHT22;25563;50.844;4.308;2022-07-23T01:19:10;18.70;99.90
39889;DHT22;25563;50.844;4.308;2022-07-23T01:21:38;18.60;99.90
39889;DHT22;25563;50.844;4.308;2022-07-23T01:24:04;18.60;99.90
39889;DHT22;25563;50.844;4.308;2022-07-23T01:26:31;18.50;99.90
39889;DHT22;25563;50.844;4.308;2022-07-23T01:28:56;18.50;99.90
39889;DHT22;25563;50.844;4.308;2022-07-23T01:31:22;18.50;99.90
39889;DHT22;25563;50.844;4.308;2022-07-23T01:33:48;18.50;99.90
39889;DHT22;25563;50.844;4.308;2022-07-23T01:36:14;18.50;99.90
39889;DHT22;25563;50.844;4.308;2022-07-23T01:38:42;18.50;99.90
39889;DHT22;25563;50.844;4.308;2022-07-23T01:41:07;18.50;99.90
39889;DHT22;25563;50.844;4.308;2022-07-23T01:43:35;18.60;99.90
39889;DHT22;25563;50.844;4.308;2022-07-23T01:46:01;18.60;99.90
39889;DHT22;25563;50.844;4.308;2022-07-23T01:48:28;18.50;99.90
39889;DHT22;25563;50.844;4.308;2022-07-23T01:50:55;18.50;99.90
39889;DHT22;25563;50.844;4.308;2022-07-23T01:53:21;18.50;99.90
39889;DHT22;25563;50.844;4.308;2022-07-23T01:55:48;18.50;99.90
39889;DHT22;25563;50.844;4.308;2022-07-23T01:58:15;18.50;99.90
39889;DHT22;25563;50.844;4.308;2022-07-23T02:00:41;18.40;99.90
39889;DHT22;25563;50.844;4.308;2022-07-23T02:03:09;18.50;99.90
39889;DHT22;25563;50.844;4.308;2022-07-23T02:05:36;18.50;99.90
39889;DHT22;25563;50.844;4.308;2022-07-23T02:08:02;18.50;99.90
39889;DHT22;25563;50.844;4.308;2022-07-23T02:10:28;18.50;99.90
39889;DHT22;25563;50.844;4.308;2022-07-23T02:12:54;18.50;99.90
39889;DHT22;25563;50.844;4.308;2022-07-23T02:15:21;18.50;99.90
39889;DHT22;25563;50.844;4.308;2022-07-23T02:17:46;18.50;99.90
39889;DHT22;25563;50.844;4.308;2022-07-23T02:20:13;18.50;99.90
39889;DHT22;25563;50.844;4.308;2022-07-23T02:22:39;18.50;99.90
39889;DHT22;25563;50.844;4.308;2022-07-23T02:25:07;18.50;99.90
39889;DHT22;25563;50.844;4.308;2022-07-23T02:27:34;18.50;99.90
39889;DHT22;25563;50.844;4.308;2022-07-23T02:30:00;18.40;99.90
39889;DHT22;25563;50.844;4.308;2022-07-23T02:32:26;18.40;99.90
39889;DHT22;25563;50.844;4.308;2022-07-23T02:34:52;18.30;99.90
39889;DHT22;25563;50.844;4.308;2022-07-23T02:37:19;18.30;99.90
39889;DHT22;25563;50.844;4.308;2022-07-23T02:39:44;18.40;99.90
39889;DHT22;25563;50.844;4.308;2022-07-23T02:42:10;18.40;99.90
39889;DHT22;25563;50.844;4.308;2022-07-23T02:44:36;18.40;99.90
39889;DHT22;25563;50.844;4.308;2022-07-23T02:47:02;18.40;99.90
39889;DHT22;25563;50.844;4.308;2022-07-23T02:49:28;18.40;99.90
39889;DHT22;25563;50.844;4.308;2022-07-23T02:51:54;18.40;99.90
39889;DHT22;25563;50.844;4.308;2022-07-23T02:54:20;18.40;99.90
39889;DHT22;25563;50.844;4.308;2022-07-23T02:56:45;18.40;99.90
39889;DHT22;25563;50.844;4.308;2022-07-23T02:59:11;18.50;99.90
39889;DHT22;25563;50.844;4.308;2022-07-23T03:01:37;18.50;99.90
39889;DHT22;25563;50.844;4.308;2022-07-23T03:04:03;18.50;99.90
39889;DHT22;25563;50.844;4.308;2022-07-23T03:06:29;18.50;99.90
39889;DHT22;25563;50.844;4.308;2022-07-23T03:08:55;18.50;99.90
39889;DHT22;25563;50.844;4.308;2022-07-23T03:11:21;18.50;99.90
39889;DHT22;25563;50.844;4.308;2022-07-23T03:13:46;18.40;99.90
39889;DHT22;25563;50.844;4.308;2022-07-23T03:16:13;18.40;99.90
39889;DHT22;25563;50.844;4.308;2022-07-23T03:18:40;18.40;99.90
39889;DHT22;25563;50.844;4.308;2022-07-23T03:21:06;18.40;99.90
39889;DHT22;25563;50.844;4.308;2022-07-23T03:23:33;18.40;99.90
39889;DHT22;25563;50.844;4.308;2022-07-23T03:25:59;18.40;99.90
39889;DHT22;25563;50.844;4.308;2022-07-23T03:28:25;18.50;99.90
39889;DHT22;25563;50.844;4.308;2022-07-23T03:30:50;18.40;99.90
39889;DHT22;25563;50.844;4.308;2022-07-23T03:33:17;18.40;99.90
39889;DHT22;25563;50.844;4.308;2022-07-23T03:35:47;18.40;99.90
39889;DHT22;25563;50.844;4.308;2022-07-23T03:38:13;18.40;99.90
39889;DHT22;25563;50.844;4.308;2022-07-23T03:40:39;18.40;99.90
39889;DHT22;25563;50.844;4.308;2022-07-23T03:43:05;18.40;99.90
39889;DHT22;25563;50.844;4.308;2022-07-23T03:45:33;18.40;99.90
39889;DHT22;25563;50.844;4.308;2022-07-23T03:47:59;18.40;99.90
39889;DHT22;25563;50.844;4.308;2022-07-23T03:50:25;18.40;99.90
39889;DHT22;25563;50.844;4.308;2022-07-23T03:52:51;18.40;99.90
39889;DHT22;25563;50.844;4.308;2022-07-23T03:55:17;18.40;99.90
39889;DHT22;25563;50.844;4.308;2022-07-23T03:57:43;18.40;99.90
39889;DHT22;25563;50.844;4.308;2022-07-23T04:00:10;18.40;99.90
39889;DHT22;25563;50.844;4.308;2022-07-23T04:02:37;18.40;99.90
39889;DHT22;25563;50.844;4.308;2022-07-23T04:05:03;18.50;99.90
39889;DHT22;25563;50.844;4.308;2022-07-23T04:07:29;18.40;99.90
39889;DHT22;25563;50.844;4.308;2022-07-23T04:09:56;18.40;99.90
39889;DHT22;25563;50.844;4.308;2022-07-23T04:12:21;18.50;99.90
39889;DHT22;25563;50.844;4.308;2022-07-23T04:14:47;18.40;99.90
39889;DHT22;25563;50.844;4.308;2022-07-23T04:17:13;18.40;99.90
39889;DHT22;25563;50.844;4.308;2022-07-23T04:19:39;18.40;99.90
39889;DHT22;25563;50.844;4.308;2022-07-23T04:22:07;18.40;99.90
39889;DHT22;25563;50.844;4.308;2022-07-23T04:24:33;18.40;99.90
39889;DHT22;25563;50.844;4.308;2022-07-23T04:26:59;18.30;99.90
39889;DHT22;25563;50.844;4.308;2022-07-23T04:29:25;18.30;99.90
39889;DHT22;25563;50.844;4.308;2022-07-23T04:31:51;18.30;99.90
39889;DHT22;25563;50.844;4.308;2022-07-23T04:34:17;18.30;99.90
39889;DHT22;25563;50.844;4.308;2022-07-23T04:36:43;18.30;99.90
39889;DHT22;25563;50.844;4.308;2022-07-23T04:39:09;18.30;99.90
39889;DHT22;25563;50.844;4.308;2022-07-23T04:41:35;18.30;99.90
39889;DHT22;25563;50.844;4.308;2022-07-23T04:44:02;18.30;99.90
39889;DHT22;25563;50.844;4.308;2022-07-23T04:46:27;18.30;99.90
39889;DHT22;25563;50.844;4.308;2022-07-23T04:48:53;18.30;99.90
39889;DHT22;25563;50.844;4.308;2022-07-23T04:51:19;18.40;99.90
39889;DHT22;25563;50.844;4.308;2022-07-23T04:53:45;18.40;99.90
39889;DHT22;25563;50.844;4.308;2022-07-23T04:56:12;18.50;99.90
39889;DHT22;25563;50.844;4.308;2022-07-23T04:58:38;18.50;99.90
39889;DHT22;25563;50.844;4.308;2022-07-23T05:01:04;18.60;99.90
39889;DHT22;25563;50.844;4.308;2022-07-23T05:03:30;18.60;99.90
39889;DHT22;25563;50.844;4.308;2022-07-23T05:05:56;18.60;99.90
39889;DHT22;25563;50.844;4.308;2022-07-23T05:08:22;18.70;99.90
39889;DHT22;25563;50.844;4.308;2022-07-23T05:10:48;18.80;99.90
39889;DHT22;25563;50.844;4.308;2022-07-23T05:13:15;18.90;99.90
39889;DHT22;25563;50.844;4.308;2022-07-23T05:15:41;19.00;99.90
39889;DHT22;25563;50.844;4.308;2022-07-23T05:18:08;19.00;99.90
39889;DHT22;25563;50.844;4.308;2022-07-23T05:20:34;19.10;99.90
39889;DHT22;25563;50.844;4.308;2022-07-23T05:23:01;19.10;99.90
39889;DHT22;25563;50.844;4.308;2022-07-23T05:25:27;19.10;99.90
39889;DHT22;25563;50.844;4.308;2022-07-23T05:27:52;19.00;99.90
39889;DHT22;25563;50.844;4.308;2022-07-23T05:30:18;19.10;99.90
39889;DHT22;25563;50.844;4.308;2022-07-23T05:32:45;19.10;99.90
39889;DHT22;25563;50.844;4.308;2022-07-23T05:35:11;19.10;99.90
39889;DHT22;25563;50.844;4.308;2022-07-23T05:37:37;19.10;99.90
39889;DHT22;25563;50.844;4.308;2022-07-23T05:40:08;19.10;99.90
39889;DHT22;25563;50.844;4.308;2022-07-23T05:42:35;19.10;99.90
39889;DHT22;25563;50.844;4.308;2022-07-23T05:45:04;19.10;99.90
39889;DHT22;25563;50.844;4.308;2022-07-23T05:47:41;19.10;99.90
39889;DHT22;25563;50.844;4.308;2022-07-23T05:50:07;19.10;99.90
39889;DHT22;25563;50.844;4.308;2022-07-23T05:52:35;19.10;99.90
39889;DHT22;25563;50.844;4.308;2022-07-23T05:55:01;19.10;99.90
39889;DHT22;25563;50.844;4.308;2022-07-23T05:57:28;19.00;99.90
39889;DHT22;25563;50.844;4.308;2022-07-23T05:59:54;19.10;99.90
39889;DHT22;25563;50.844;4.308;2022-07-23T06:02:21;19.00;99.90
39889;DHT22;25563;50.844;4.308;2022-07-23T06:04:48;19.00;99.90
39889;DHT22;25563;50.844;4.308;2022-07-23T06:07:14;19.00;99.90
39889;DHT22;25563;50.844;4.308;2022-07-23T06:09:40;19.00;99.90
39889;DHT22;25563;50.844;4.308;2022-07-23T06:12:07;19.00;99.90
39889;DHT22;25563;50.844;4.308;2022-07-23T06:14:33;19.10;99.90
39889;DHT22;25563;50.844;4.308;2022-07-23T06:16:59;19.10;99.90
39889;DHT22;25563;50.844;4.308;2022-07-23T06:19:25;19.10;99.90
39889;DHT22;25563;50.844;4.308;2022-07-23T06:21:51;19.20;99.90
39889;DHT22;25563;50.844;4.308;2022-07-23T06:24:18;19.20;99.90
39889;DHT22;25563;50.844;4.308;2022-07-23T06:26:43;19.30;99.90
39889;DHT22;25563;50.844;4.308;2022-07-23T06:29:10;19.30;99.90
39889;DHT22;25563;50.844;4.308;2022-07-23T06:31:36;19.40;99.90
39889;DHT22;25563;50.844;4.308;2022-07-23T06:34:02;19.40;99.90
39889;DHT22;25563;50.844;4.308;2022-07-23T06:36:29;19.50;99.90
39889;DHT22;25563;50.844;4.308;2022-07-23T06:38:55;19.50;99.90
39889;DHT22;25563;50.844;4.308;2022-07-23T06:41:21;19.50;99.90
39889;DHT22;25563;50.844;4.308;2022-07-23T06:43:50;19.60;99.90
39889;DHT22;25563;50.844;4.308;2022-07-23T06:46:17;19.60;99.90
39889;DHT22;25563;50.844;4.308;2022-07-23T06:48:43;19.70;99.80
39889;DHT22;25563;50.844;4.308;2022-07-23T06:51:10;19.70;99.80
39889;DHT22;25563;50.844;4.308;2022-07-23T06:53:37;19.70;99.70
39889;DHT22;25563;50.844;4.308;2022-07-23T06:56:03;19.70;99.60
39889;DHT22;25563;50.844;4.308;2022-07-23T06:58:30;19.80;99.50
39889;DHT22;25563;50.844;4.308;2022-07-23T07:00:57;19.80;99.60
39889;DHT22;25563;50.844;4.308;2022-07-23T07:03:23;19.80;99.50
39889;DHT22;25563;50.844;4.308;2022-07-23T07:05:49;19.90;99.30
39889;DHT22;25563;50.844;4.308;2022-07-23T07:08:16;20.00;99.30
39889;DHT22;25563;50.844;4.308;2022-07-23T07:10:43;20.00;99.10
39889;DHT22;25563;50.844;4.308;2022-07-23T07:13:10;20.10;99.20
39889;DHT22;25563;50.844;4.308;2022-07-23T07:15:35;20.10;99.00
39889;DHT22;25563;50.844;4.308;2022-07-23T07:18:02;20.20;98.90
39889;DHT22;25563;50.844;4.308;2022-07-23T07:20:28;20.20;98.80
39889;DHT22;25563;50.844;4.308;2022-07-23T07:22:56;20.20;98.70
39889;DHT22;25563;50.844;4.308;2022-07-23T07:25:23;20.30;98.70
39889;DHT22;25563;50.844;4.308;2022-07-23T07:27:50;20.30;98.50
39889;DHT22;25563;50.844;4.308;2022-07-23T07:30:17;20.40;98.30
39889;DHT22;25563;50.844;4.308;2022-07-23T07:32:43;20.60;98.30
39889;DHT22;25563;50.844;4.308;2022-07-23T07:35:09;20.50;97.80
39889;DHT22;25563;50.844;4.308;2022-07-23T07:37:35;20.60;97.70
39889;DHT22;25563;50.844;4.308;2022-07-23T07:40:03;20.70;97.70
39889;DHT22;25563;50.844;4.308;2022-07-23T07:42:29;20.80;97.70
39889;DHT22;25563;50.844;4.308;2022-07-23T07:44:55;20.80;97.50
39889;DHT22;25563;50.844;4.308;2022-07-23T07:47:21;20.90;97.60
39889;DHT22;25563;50.844;4.308;2022-07-23T07:49:47;21.00;97.50
39889;DHT22;25563;50.844;4.308;2022-07-23T07:52:13;21.10;96.90
39889;DHT22;25563;50.844;4.308;2022-07-23T07:54:38;21.10;96.80
39889;DHT22;25563;50.844;4.308;2022-07-23T07:57:05;21.20;97.00
39889;DHT22;25563;50.844;4.308;2022-07-23T07:59:31;21.20;96.90
39889;DHT22;25563;50.844;4.308;2022-07-23T08:01:59;21.30;96.50
39889;DHT22;25563;50.844;4.308;2022-07-23T08:04:40;21.30;96.40
39889;DHT22;25563;50.844;4.308;2022-07-23T08:07:06;21.40;96.10
39889;DHT22;25563;50.844;4.308;2022-07-23T08:09:32;21.40;95.60
39889;DHT22;25563;50.844;4.308;2022-07-23T08:12:03;21.40;95.60
39889;DHT22;25563;50.844;4.308;2022-07-23T08:14:36;21.40;95.40
39889;DHT22;25563;50.844;4.308;2022-07-23T08:17:05;21.50;95.30
39889;DHT22;25563;50.844;4.308;2022-07-23T08:19:33;21.50;95.20
39889;DHT22;25563;50.844;4.308;2022-07-23T08:22:01;21.60;95.40
39889;DHT22;25563;50.844;4.308;2022-07-23T08:24:28;21.60;95.40
39889;DHT22;25563;50.844;4.308;2022-07-23T08:26:55;21.70;95.10
39889;DHT22;25563;50.844;4.308;2022-07-23T08:29:22;21.80;95.00
39889;DHT22;25563;50.844;4.308;2022-07-23T08:31:48;21.90;95.00
39889;DHT22;25563;50.844;4.308;2022-07-23T08:34:21;21.90;94.60
39889;DHT22;25563;50.844;4.308;2022-07-23T08:36:48;22.00;94.40
39889;DHT22;25563;50.844;4.308;2022-07-23T08:39:16;22.10;94.30
39889;DHT22;25563;50.844;4.308;2022-07-23T08:41:43;22.10;94.00
39889;DHT22;25563;50.844;4.308;2022-07-23T08:44:09;22.10;93.80
39889;DHT22;25563;50.844;4.308;2022-07-23T08:46:36;22.20;93.80
39889;DHT22;25563;50.844;4.308;2022-07-23T08:49:05;22.20;93.40
39889;DHT22;25563;50.844;4.308;2022-07-23T08:51:32;22.30;93.10
39889;DHT22;25563;50.844;4.308;2022-07-23T08:54:00;22.40;93.30
39889;DHT22;25563;50.844;4.308;2022-07-23T08:56:26;22.50;93.10
39889;DHT22;25563;50.844;4.308;2022-07-23T08:58:54;22.60;92.90
39889;DHT22;25563;50.844;4.308;2022-07-23T09:01:25;22.70;92.40
39889;DHT22;25563;50.844;4.308;2022-07-23T09:03:54;22.80;92.00
39889;DHT22;25563;50.844;4.308;2022-07-23T09:06:25;22.80;91.90
39889;DHT22;25563;50.844;4.308;2022-07-23T09:08:51;23.00;91.60
39889;DHT22;25563;50.844;4.308;2022-07-23T09:11:18;23.00;91.50
39889;DHT22;25563;50.844;4.308;2022-07-23T09:14:03;23.00;91.80
39889;DHT22;25563;50.844;4.308;2022-07-23T09:16:31;23.10;91.60
39889;DHT22;25563;50.844;4.308;2022-07-23T09:19:07;23.10;91.20
39889;DHT22;25563;50.844;4.308;2022-07-23T09:21:38;23.20;91.10
39889;DHT22;25563;50.844;4.308;2022-07-23T09:24:06;23.30;90.70
39889;DHT22;25563;50.844;4.308;2022-07-23T09:26:37;23.30;90.20
39889;DHT22;25563;50.844;4.308;2022-07-23T09:29:26;23.40;90.30
39889;DHT22;25563;50.844;4.308;2022-07-23T09:32:14;23.40;90.30
39889;DHT22;25563;50.844;4.308;2022-07-23T09:34:49;23.50;90.20
39889;DHT22;25563;50.844;4.308;2022-07-23T09:37:18;23.40;89.80
39889;DHT22;25563;50.844;4.308;2022-07-23T09:39:48;23.40;90.00
39889;DHT22;25563;50.844;4.308;2022-07-23T09:42:19;23.40;90.00
39889;DHT22;25563;50.844;4.308;2022-07-23T09:44:52;23.40;88.90
39889;DHT22;25563;50.844;4.308;2022-07-23T09:47:20;23.50;88.60
39889;DHT22;25563;50.844;4.308;2022-07-23T09:49:59;23.60;87.90
39889;DHT22;25563;50.844;4.308;2022-07-23T09:52:31;23.70;88.00
39889;DHT22;25563;50.844;4.308;2022-07-23T09:55:04;23.80;87.00
39889;DHT22;25563;50.844;4.308;2022-07-23T09:57:32;23.90;86.20
39889;DHT22;25563;50.844;4.308;2022-07-23T10:00:08;23.90;85.40
39889;DHT22;25563;50.844;4.308;2022-07-23T10:02:38;24.00;85.70
39889;DHT22;25563;50.844;4.308;2022-07-23T10:05:07;24.10;85.60
39889;DHT22;25563;50.844;4.308;2022-07-23T10:07:36;24.20;85.60
39889;DHT22;25563;50.844;4.308;2022-07-23T10:10:03;24.40;83.20
39889;DHT22;25563;50.844;4.308;2022-07-23T10:12:31;24.50;83.50
39889;DHT22;25563;50.844;4.308;2022-07-23T10:15:08;24.50;83.80
39889;DHT22;25563;50.844;4.308;2022-07-23T10:17:35;24.60;83.20
39889;DHT22;25563;50.844;4.308;2022-07-23T10:20:02;24.80;82.40
39889;DHT22;25563;50.844;4.308;2022-07-23T10:22:42;24.80;82.50
39889;DHT22;25563;50.844;4.308;2022-07-23T10:31:00;25.00;82.40
39889;DHT22;25563;50.844;4.308;2022-07-23T10:34:06;25.10;82.20
39889;DHT22;25563;50.844;4.308;2022-07-23T10:37:16;25.20;80.60
39889;DHT22;25563;50.844;4.308;2022-07-23T10:39:46;25.30;80.20
39889;DHT22;25563;50.844;4.308;2022-07-23T10:42:15;25.40;79.20
39889;DHT22;25563;50.844;4.308;2022-07-23T10:44:47;25.50;79.20
39889;DHT22;25563;50.844;4.308;2022-07-23T10:47:25;25.50;77.60
39889;DHT22;25563;50.844;4.308;2022-07-23T10:50:19;25.60;76.50
39889;DHT22;25563;50.844;4.308;2022-07-23T10:58:05;25.80;76.00
39889;DHT22;25563;50.844;4.308;2022-07-23T11:00:32;25.90;76.30
39889;DHT22;25563;50.844;4.308;2022-07-23T11:03:03;26.10;75.70
39889;DHT22;25563;50.844;4.308;2022-07-23T11:05:46;26.20;75.30
39889;DHT22;25563;50.844;4.308;2022-07-23T11:16:04;26.20;74.70
39889;DHT22;25563;50.844;4.308;2022-07-23T11:24:07;26.20;74.00
39889;DHT22;25563;50.844;4.308;2022-07-23T11:26:58;26.30;74.20
39889;DHT22;25563;50.844;4.308;2022-07-23T11:32:23;26.50;73.30
39889;DHT22;25563;50.844;4.308;2022-07-23T11:34:50;26.60;72.60
39889;DHT22;25563;50.844;4.308;2022-07-23T11:37:36;26.70;72.40
39889;DHT22;25563;50.844;4.308;2022-07-23T11:40:10;26.70;72.30
39889;DHT22;25563;50.844;4.308;2022-07-23T11:42:37;26.90;72.00
39889;DHT22;25563;50.844;4.308;2022-07-23T11:45:06;27.20;71.70
39889;DHT22;25563;50.844;4.308;2022-07-23T11:47:35;27.40;70.90
39889;DHT22;25563;50.844;4.308;2022-07-23T11:50:03;27.50;70.40
39889;DHT22;25563;50.844;4.308;2022-07-23T11:52:32;27.60;69.70
39889;DHT22;25563;50.844;4.308;2022-07-23T11:55:00;27.70;69.20
39889;DHT22;25563;50.844;4.308;2022-07-23T11:57:29;27.70;69.30
39889;DHT22;25563;50.844;4.308;2022-07-23T12:00:30;28.30;69.00
39889;DHT22;25563;50.844;4.308;2022-07-23T12:02:59;30.70;65.90
39889;DHT22;25563;50.844;4.308;2022-07-23T12:05:32;32.30;62.30
39889;DHT22;25563;50.844;4.308;2022-07-23T12:08:00;33.40;59.60
39889;DHT22;25563;50.844;4.308;2022-07-23T12:12:59;35.70;56.80
39889;DHT22;25563;50.844;4.308;2022-07-23T12:15:29;36.20;53.90
39889;DHT22;25563;50.844;4.308;2022-07-23T12:18:02;36.50;52.60
39889;DHT22;25563;50.844;4.308;2022-07-23T12:20:36;36.60;51.80
39889;DHT22;25563;50.844;4.308;2022-07-23T12:23:24;36.50;51.80
39889;DHT22;25563;50.844;4.308;2022-07-23T12:26:18;37.00;50.80
39889;DHT22;25563;50.844;4.308;2022-07-23T12:28:52;38.30;50.10
39889;DHT22;25563;50.844;4.308;2022-07-23T12:31:26;38.80;48.50
39889;DHT22;25563;50.844;4.308;2022-07-23T12:33:52;38.30;47.90
39889;DHT22;25563;50.844;4.308;2022-07-23T12:36:20;37.90;47.90
39889;DHT22;25563;50.844;4.308;2022-07-23T12:39:01;38.10;47.50
39889;DHT22;25563;50.844;4.308;2022-07-23T12:41:52;38.30;47.00
39889;DHT22;25563;50.844;4.308;2022-07-23T12:44:20;38.40;46.50
39889;DHT22;25563;50.844;4.308;2022-07-23T12:46:54;38.80;46.30
39889;DHT22;25563;50.844;4.308;2022-07-23T12:49:28;39.10;46.50
39889;DHT22;25563;50.844;4.308;2022-07-23T12:52:13;39.70;46.30
39889;DHT22;25563;50.844;4.308;2022-07-23T12:54:46;40.30;45.20
39889;DHT22;25563;50.844;4.308;2022-07-23T12:57:18;40.00;44.10
39889;DHT22;25563;50.844;4.308;2022-07-23T12:59:47;39.60;44.20
39889;DHT22;25563;50.844;4.308;2022-07-23T13:02:16;39.40;44.60
39889;DHT22;25563;50.844;4.308;2022-07-23T13:04:42;39.00;44.90
39889;DHT22;25563;50.844;4.308;2022-07-23T13:07:11;38.40;45.60
39889;DHT22;25563;50.844;4.308;2022-07-23T13:09:59;38.00;45.70
39889;DHT22;25563;50.844;4.308;2022-07-23T13:12:38;37.90;45.90
39889;DHT22;25563;50.844;4.308;2022-07-23T13:15:04;38.30;45.50
39889;DHT22;25563;50.844;4.308;2022-07-23T13:17:31;39.30;45.00
39889;DHT22;25563;50.844;4.308;2022-07-23T13:20:02;40.20;43.90
39889;DHT22;25563;50.844;4.308;2022-07-23T13:22:35;41.10;43.80
39889;DHT22;25563;50.844;4.308;2022-07-23T13:25:01;41.90;42.60
39889;DHT22;25563;50.844;4.308;2022-07-23T13:27:26;41.40;42.50
39889;DHT22;25563;50.844;4.308;2022-07-23T13:29:54;41.30;42.90
39889;DHT22;25563;50.844;4.308;2022-07-23T13:32:21;41.10;42.60
39889;DHT22;25563;50.844;4.308;2022-07-23T13:34:50;41.00;42.60
39889;DHT22;25563;50.844;4.308;2022-07-23T13:37:16;41.00;42.70
39889;DHT22;25563;50.844;4.308;2022-07-23T13:39:42;41.60;42.30
39889;DHT22;25563;50.844;4.308;2022-07-23T13:42:09;41.60;42.10
39889;DHT22;25563;50.844;4.308;2022-07-23T13:44:37;39.20;43.40
39889;DHT22;25563;50.844;4.308;2022-07-23T13:47:04;37.00;45.40
39889;DHT22;25563;50.844;4.308;2022-07-23T13:49:30;35.50;47.00
39889;DHT22;25563;50.844;4.308;2022-07-23T13:51:56;35.50;47.60
39889;DHT22;25563;50.844;4.308;2022-07-23T13:54:23;37.00;46.50
39889;DHT22;25563;50.844;4.308;2022-07-23T13:56:50;38.20;45.40
39889;DHT22;25563;50.844;4.308;2022-07-23T13:59:17;38.70;45.10
39889;DHT22;25563;50.844;4.308;2022-07-23T14:01:44;39.20;44.70
39889;DHT22;25563;50.844;4.308;2022-07-23T14:04:14;39.50;44.20
39889;DHT22;25563;50.844;4.308;2022-07-23T14:06:40;37.80;45.00
39889;DHT22;25563;50.844;4.308;2022-07-23T14:09:09;36.80;46.00
39889;DHT22;25563;50.844;4.308;2022-07-23T14:11:35;36.20;46.60
39889;DHT22;25563;50.844;4.308;2022-07-23T14:14:02;35.90;46.70
39889;DHT22;25563;50.844;4.308;2022-07-23T14:16:29;35.30;47.30
39889;DHT22;25563;50.844;4.308;2022-07-23T14:18:54;36.30;46.70
39889;DHT22;25563;50.844;4.308;2022-07-23T14:21:20;36.30;46.70
39889;DHT22;25563;50.844;4.308;2022-07-23T14:23:50;36.30;46.70
39889;DHT22;25563;50.844;4.308;2022-07-23T14:26:16;37.10;46.60
39889;DHT22;25563;50.844;4.308;2022-07-23T14:28:46;38.40;45.10
39889;DHT22;25563;50.844;4.308;2022-07-23T14:31:12;39.30;43.80
39889;DHT22;25563;50.844;4.308;2022-07-23T14:33:39;38.50;43.90
39889;DHT22;25563;50.844;4.308;2022-07-23T14:36:06;38.10;44.20
39889;DHT22;25563;50.844;4.308;2022-07-23T14:38:32;38.10;44.40
39889;DHT22;25563;50.844;4.308;2022-07-23T14:40:59;38.20;44.70
39889;DHT22;25563;50.844;4.308;2022-07-23T14:43:26;39.10;43.60
39889;DHT22;25563;50.844;4.308;2022-07-23T14:45:52;39.40;43.60
39889;DHT22;25563;50.844;4.308;2022-07-23T14:48:19;38.30;44.50
39889;DHT22;25563;50.844;4.308;2022-07-23T14:50:46;37.30;45.50
39889;DHT22;25563;50.844;4.308;2022-07-23T14:53:19;37.40;45.80
39889;DHT22;25563;50.844;4.308;2022-07-23T14:55:45;38.80;44.60
39889;DHT22;25563;50.844;4.308;2022-07-23T14:58:16;39.20;43.70
39889;DHT22;25563;50.844;4.308;2022-07-23T15:00:42;39.40;43.80
39889;DHT22;25563;50.844;4.308;2022-07-23T15:03:09;39.90;43.10
39889;DHT22;25563;50.844;4.308;2022-07-23T15:05:36;40.20;42.40
39889;DHT22;25563;50.844;4.308;2022-07-23T15:08:03;40.50;42.80
39889;DHT22;25563;50.844;4.308;2022-07-23T15:10:29;39.10;43.00
39889;DHT22;25563;50.844;4.308;2022-07-23T15:12:55;37.30;45.30
39889;DHT22;25563;50.844;4.308;2022-07-23T15:15:22;36.10;45.60
39889;DHT22;25563;50.844;4.308;2022-07-23T15:17:53;35.30;46.40
39889;DHT22;25563;50.844;4.308;2022-07-23T15:20:19;36.10;46.10
39889;DHT22;25563;50.844;4.308;2022-07-23T15:22:45;36.60;46.20
39889;DHT22;25563;50.844;4.308;2022-07-23T15:25:13;37.00;45.40
39889;DHT22;25563;50.844;4.308;2022-07-23T15:27:39;36.00;46.00
39889;DHT22;25563;50.844;4.308;2022-07-23T15:30:06;36.30;46.20
39889;DHT22;25563;50.844;4.308;2022-07-23T15:32:34;38.00;45.20
39889;DHT22;25563;50.844;4.308;2022-07-23T15:35:06;39.90;43.70
39889;DHT22;25563;50.844;4.308;2022-07-23T15:37:36;40.60;42.40
39889;DHT22;25563;50.844;4.308;2022-07-23T15:40:05;39.90;43.60
39889;DHT22;25563;50.844;4.308;2022-07-23T15:42:33;40.10;43.00
39889;DHT22;25563;50.844;4.308;2022-07-23T15:45:03;38.70;43.70
39889;DHT22;25563;50.844;4.308;2022-07-23T15:47:29;37.00;44.80
39889;DHT22;25563;50.844;4.308;2022-07-23T15:50:00;36.20;45.90
39889;DHT22;25563;50.844;4.308;2022-07-23T15:52:28;35.90;45.90
39889;DHT22;25563;50.844;4.308;2022-07-23T15:54:57;35.20;46.40
39889;DHT22;25563;50.844;4.308;2022-07-23T15:57:24;35.50;46.30
39889;DHT22;25563;50.844;4.308;2022-07-23T15:59:51;37.50;45.00
39889;DHT22;25563;50.844;4.308;2022-07-23T16:02:39;39.30;43.20
39889;DHT22;25563;50.844;4.308;2022-07-23T16:05:45;40.40;42.90
39889;DHT22;25563;50.844;4.308;2022-07-23T16:08:14;41.50;41.70